Latest Coastal Weather Observations for Devonport Airport

IDV60701

Issued at 6:21 am EDT Tuesday 23 December 2014 (issued every 10 minutes, with the page automatically refreshed every 10 minutes)

About coastal observations | Map of coastal stations | Coastal observations for VIC | Marine services | Other Formats
Station Details ID: 091126 Name: DEVONPORT AIRPORT Lat: -41.17 Lon: 146.43 Height: 8.0 m
Data from the previous 72 hours. | See also: Recent months at Devonport Airport
Date/Time
EDT
Temp

°C
Wind Pressure Rain
since 9am
mm
Weather Cloud Vis
km
Sea
Height
m
Swell
Dir
 
Speed
knots
Gust
knots
hPa Trend Height
m
Period
s
Dir
23/06:00am 16.6 S 10 12 1006.6 - 0.0 Showers Cloudy 10 - - - -
23/05:30am 16.8 SE 8 9 1006.7 - 0.0 - Partly cloudy 10 - - - -
23/05:00am 16.7 SSE 7 8 1006.5 - 0.0 - Partly cloudy 10 - - - -
23/04:30am 16.5 S 7 9 1006.4 - 0.0 - Cloudy 10 - - - -
23/04:00am 16.5 NW 1 5 1007.3 - 0.0 - Partly cloudy 10 - - - -
23/03:30am 16.8 CALM 0 4 1006.9 - 0.0 - Partly cloudy 10 - - - -
23/03:00am 17.2 WSW 4 7 1007.2 - 0.0 - Cloudy 10 - - - -
23/02:30am 17.9 NW 6 12 1008.2 - 0.0 - Partly cloudy 10 - - - -
23/02:00am 18.1 SSE 7 9 1007.7 - 0.0 - Partly cloudy 10 - - - -
23/01:30am 18.4 SSE 11 14 1008.3 - 0.0 - Partly cloudy 10 - - - -
23/01:00am 17.6 ESE 4 9 1009.2 - 0.0 - Partly cloudy 10 - - - -
23/12:30am 17.5 SSE 5 8 1009.7 - 0.0 - Cloudy 10 - - - -
23/12:00am 17.7 SSE 9 11 1010.0 - 0.0 - Mostly cloudy 29 - - - -
 
Date/Time
EDT
Temp

°C
Wind Pressure Rain
since 9am
mm
Weather Cloud Vis
km
Sea
Height
m
Swell
Dir
 
Speed
knots
Gust
knots
hPa Trend Height
m
Period
s
Dir
22/11:30pm 17.8 SSE 5 6 1010.5 - 0.0 - Cloudy 10 - - - -
22/11:00pm 17.6 SSE 9 11 1010.5 - 0.0 - Partly cloudy 10 - - - -
22/10:30pm 17.5 SSE 7 9 1010.9 - 0.0 - Partly cloudy 10 - - - -
22/10:00pm 17.6 SSE 7 8 1011.5 - 0.0 - Partly cloudy 10 - - - -
22/09:30pm 17.7 WSW 5 7 1012.1 - 0.0 - Partly cloudy 10 - - - -
22/09:00pm 17.6 WSW 7 8 1012.1 - 0.0 Rain Cloudy 10 - - - -
22/08:30pm 18.1 NE 5 7 1011.6 - 0.0 - Partly cloudy 10 - - - -
22/08:00pm 17.9 NE 9 12 1011.2 - 0.0 - Cloudy 10 - - - -
22/07:30pm 17.9 NE 10 14 1011.1 - 0.0 - - 10 - - - -
22/07:00pm 18.1 NE 10 14 1011.0 - 0.0 - - 10 - - - -
22/06:30pm 18.4 NE 9 11 1010.6 - 0.0 - - 10 - - - -
22/06:00pm 19.2 ENE 7 11 1010.7 - 0.0 Drizzle Cloudy 10 - - - -
22/05:30pm 18.9 ENE 11 13 1011.1 - 0.0 - Partly cloudy 10 - - - -
22/05:00pm 18.1 NE 11 14 1012.3 - 0.0 - Partly cloudy 10 - - - -
22/04:30pm 18.3 NE 10 13 1012.9 - 0.0 - Partly cloudy 10 - - - -
22/04:00pm 18.6 NE 8 9 1013.3 - 0.0 - Cloudy 10 - - - -
22/03:30pm 19.0 N 5 6 1013.7 - 0.0 - Partly cloudy 10 - - - -
22/03:00pm 19.9 NE 2 4 1014.2 - 0.0 Showers Cloudy 10 - - - -
22/02:30pm 19.4 NE 3 6 1014.7 - 0.0 - Partly cloudy 10 - - - -
22/02:00pm 18.7 NW 4 6 1015.7 - 0.0 - Partly cloudy 10 - - - -
22/01:30pm 18.3 NW 4 7 1015.9 - 0.0 - Partly cloudy 10 - - - -
22/01:00pm 17.8 NW 7 8 1016.2 - 0.0 - Partly cloudy 10 - - - -
22/12:30pm 18.1 NNW 6 8 1016.0 - 0.0 - - 10 - - - -
22/12:00pm 18.2 NNW 7 10 1016.0 - 0.0 - Cloudy 10 - - - -
22/11:30am 17.8 N 5 7 1016.0 - 0.0 - - 10 - - - -
22/11:00am 17.7 N 7 9 1015.8 - 0.0 - - 10 - - - -
22/10:30am 18.7 NNW 7 9 1015.9 - 0.0 - - 10 - - - -
22/10:00am 19.2 NE 6 8 1015.7 - 0.0 - - 10 - - - -
22/09:30am 18.6 SE 5 9 1015.5 - 0.0 - - 10 - - - -
22/09:00am 17.3 SSE 6 9 1015.7 - 0.0 - - 10 - - - -
22/08:30am 16.3 S 7 9 1015.8 - 0.0 - - 10 - - - -
22/08:00am 15.3 SSE 8 10 1015.5 - 0.0 - - 10 - - - -
22/07:30am 14.8 S 8 9 1015.4 - 0.0 - Partly cloudy 10 - - - -
22/07:00am 13.8 SSE 6 8 1015.1 - 0.0 - - 10 - - - -
22/06:30am 12.5 SSE 7 8 1014.8 - 0.0 - - 10 - - - -
22/06:00am 11.9 SSE 8 11 1014.6 - 0.0 - - 10 - - - -
22/05:30am 11.3 SSE 6 8 1014.4 - 0.0 - - 10 - - - -
22/05:00am 12.0 SSE 8 11 1014.2 - 0.0 - - 10 - - - -
22/04:30am 11.6 SSE 8 11 1013.9 - 0.0 - - 10 - - - -
22/04:00am 12.0 SSE 9 11 1013.7 - 0.0 - - 10 - - - -
22/03:30am 12.4 SSE 10 12 1013.7 - 0.0 - - 10 - - - -
22/03:00am 11.9 S 7 9 1013.9 - 0.0 - - 10 - - - -
22/02:30am 12.1 SSE 8 9 1013.9 - 0.0 - - 10 - - - -
22/02:00am 12.9 SSE 8 9 1014.1 - 0.0 - - 10 - - - -
22/01:30am 12.4 SSE 8 9 1014.1 - 0.0 - - 10 - - - -
22/01:00am 12.6 SSE 7 8 1014.0 - 0.0 - - 10 - - - -
22/12:30am 12.8 SSE 7 9 1014.0 - 0.0 - - 10 - - - -
22/12:00am 12.7 SSE 7 7 1013.9 - 0.0 - - 10 - - - -
 
Date/Time
EDT
Temp

°C
Wind Pressure Rain
since 9am
mm
Weather Cloud Vis
km
Sea
Height
m
Swell
Dir
 
Speed
knots
Gust
knots
hPa Trend Height
m
Period
s
Dir
21/11:30pm 12.9 S 8 9 1013.8 - 0.0 - - 10 - - - -
21/11:00pm 13.0 SSE 7 8 1013.9 - 0.0 - - 10 - - - -
21/10:30pm 14.0 E 7 8 1013.9 - 0.0 - - 10 - - - -
21/10:00pm 14.0 NE 3 4 1013.6 - 0.0 - - 10 - - - -
21/09:30pm 15.3 NNE 3 4 1013.3 - 0.0 - - 10 - - - -
21/09:00pm 16.2 WNW 7 11 1013.3 - 0.0 - - 10 - - - -
21/08:30pm 16.3 NW 10 14 1012.9 - 0.0 - - 10 - - - -
21/08:00pm 16.7 NW 9 12 1012.8 - 0.0 - Partly cloudy 10 - - - -
21/07:30pm 17.1 NW 16 20 1012.7 - 0.0 - - 10 - - - -
21/07:00pm 16.9 NW 15 18 1012.5 - 0.0 - - 10 - - - -
21/06:30pm 16.8 NW 15 19 1012.7 - 0.0 - - 10 - - - -
21/06:00pm 16.8 NW 13 16 1012.8 - 0.0 - Partly cloudy 10 - - - -
21/05:30pm 17.0 NW 14 19 1013.1 - 0.0 - - 10 - - - -
21/05:00pm 17.1 NW 15 19 1013.3 - 0.0 - - 10 - - - -
21/04:30pm 18.0 NW 15 18 1013.5 - 0.0 - - 10 - - - -
21/04:00pm 17.5 NW 13 16 1013.7 - 0.0 - Partly cloudy 10 - - - -
21/03:48pm 18.4 NW 15 18 1013.8 - 0.0 - Partly cloudy 10 - - - -
21/03:30pm 17.8 NW 15 19 1013.7 - 0.0 - Partly cloudy 10 - - - -
21/03:00pm 17.4 NNW 14 17 1013.8 - 0.0 - Partly cloudy 10 - - - -
21/02:30pm 17.4 NNW 14 18 1014.1 - 0.0 - Partly cloudy 10 - - - -
21/02:16pm 17.5 NW 13 17 1014.3 - 0.0 - Partly cloudy 10 - - - -
21/02:00pm 17.4 NNW 14 19 1014.4 - 0.0 - Partly cloudy 10 - - - -
21/01:30pm 17.8 NW 15 19 1014.8 - 0.0 - - 10 - - - -
21/01:00pm 18.3 NW 15 18 1015.1 - 0.0 - Partly cloudy 10 - - - -
21/12:30pm 18.0 NNW 13 16 1015.3 - 0.0 - Partly cloudy 10 - - - -
21/12:00pm 17.8 N 10 13 1015.1 - 0.0 - - 10 - - - -
21/11:30am 17.7 N 10 12 1015.1 - 0.0 - - 10 - - - -
21/11:00am 17.1 N 10 12 1015.4 - 0.0 - - 10 - - - -
21/10:30am 16.9 NNE 8 12 1015.2 - 0.0 - - 10 - - - -
21/10:00am 17.0 NNE 8 11 1015.4 - 0.0 - Partly cloudy 10 - - - -
21/09:30am 17.3 NE 8 11 1015.4 - 0.0 - - 10 - - - -
21/09:00am 17.0 NE 9 12 1015.3 - 0.0 - - 10 - - - -
21/08:30am 16.7 NE 9 12 1015.2 - 0.0 - - 10 - - - -
21/08:00am 16.5 E 6 11 1015.0 - 0.0 - Partly cloudy 10 - - - -
21/07:30am 15.6 SE 7 9 1014.8 - 0.0 - - 10 - - - -
21/07:00am 14.8 SE 8 9 1014.5 - 0.0 - - 10 - - - -
21/06:30am 12.9 SE 8 9 1014.9 - 0.0 - - 10 - - - -
21/06:00am 11.7 SSE 8 9 1015.5 - 0.0 - - 10 - - - -
21/05:30am 11.6 SSE 9 10 1015.0 - 0.0 - - 10 - - - -
21/05:00am 11.5 SSE 9 10 1014.4 - 0.0 - - 10 - - - -
21/04:39am 11.7 SSE 9 11 1014.2 - 0.0 - Partly cloudy 10 - - - -
21/04:30am 11.9 SSE 8 11 1014.2 - 0.0 - Partly cloudy 10 - - - -
21/04:13am 11.7 SSE 7 8 1014.2 - 0.0 - Partly cloudy 10 - - - -
21/04:00am 11.8 SSE 6 7 1014.1 - 0.0 - Partly cloudy 10 - - - -
21/03:35am 14.1 E 9 11 1014.2 - 0.0 - Partly cloudy 10 - - - -
21/03:30am 14.2 E 9 13 1014.2 - 0.0 - Partly cloudy 10 - - - -
21/03:00am 12.6 SE 8 11 1014.3 - 0.0 - Partly cloudy 10 - - - -
21/02:49am 12.3 SSE 9 12 1014.3 - 0.0 - Partly cloudy 10 - - - -
21/02:30am 10.6 SSE 8 9 1014.5 - 0.0 - - 10 - - - -
21/02:00am 11.0 SSE 9 10 1014.6 - 0.0 - - 10 - - - -
21/01:30am 10.7 SE 5 8 1014.8 - 0.0 - Partly cloudy 10 - - - -
21/01:00am 10.4 E 6 9 1015.0 - 0.0 - - 10 - - - -
21/12:30am 10.5 S 5 6 1015.1 - 0.0 - - 10 - - - -
21/12:00am 9.5 SSW 2 5 1015.0 - 0.0 - - 10 - - - -
 
Date/Time
EDT
Temp

°C
Wind Pressure Rain
since 9am
mm
Weather Cloud Vis
km
Sea
Height
m
Swell
Dir
 
Speed
knots
Gust
knots
hPa Trend Height
m
Period
s
Dir
20/11:30pm 11.1 SSE 5 6 1014.9 - 0.0 - - 10 - - - -
20/11:00pm 12.1 S 4 5 1014.9 - 0.0 - - 10 - - - -
20/10:30pm 14.5 WSW 6 8 1014.6 - 0.0 - - 10 - - - -
20/10:00pm 14.6 W 5 7 1014.5 - 0.0 - - 10 - - - -
20/09:30pm 13.9 W 9 11 1014.3 - 0.0 - - 10 - - - -
20/09:00pm 16.8 WNW 6 9 1014.3 - 0.0 - - 10 - - - -
20/08:30pm 18.0 WSW 10 14 1013.9 - 0.0 - - 10 - - - -
20/08:00pm 19.7 WSW 12 15 1013.7 - 0.0 - - 10 - - - -
20/07:30pm 20.5 WSW 12 17 1013.4 - 0.0 - - 10 - - - -
20/07:00pm 21.6 WSW 14 19 1013.1 - 0.0 - - 10 - - - -
20/06:30pm 22.1 WSW 13 19 1012.8 - 0.0 - - 10 - - - -
20/06:00pm 22.5 SW 12 16 1012.7 - 0.0 - - 10 - - - -
20/05:30pm 23.1 WSW 14 18 1012.5 - 0.0 - - 10 - - - -
20/05:00pm 23.2 WSW 13 18 1012.6 - 0.0 - - 10 - - - -
20/04:30pm 23.5 W 14 22 1012.6 - 0.0 - - 10 - - - -
20/04:00pm 23.4 W 16 21 1012.6 - 0.0 - - 10 - - - -
20/03:30pm 23.8 W 17 24 1012.7 - 0.0 - Partly cloudy 10 - - - -
20/03:00pm 23.3 W 15 21 1013.1 - 0.0 - Mostly clear 10 - - - -
20/02:30pm 23.2 W 16 21 1013.0 - 0.0 - Partly cloudy 10 - - - -
20/02:04pm 23.8 W 19 29 1013.1 - 0.0 - - 10 - - - -
20/02:00pm 23.2 W 20 27 1013.0 - 0.0 - - 10 - - - -
20/01:47pm 22.7 WSW 19 32 1013.1 - 0.0 - - 10 - - - -
20/01:42pm 23.2 WSW 16 32 1013.1 - 0.0 - - 10 - - - -
20/01:30pm 23.0 W 17 23 1013.0 - 0.0 - - 10 - - - -
20/01:00pm 22.8 WSW 17 23 1013.3 - 0.0 - Partly cloudy 10 - - - -
20/12:30pm 22.7 WSW 16 26 1013.3 - 0.0 - Partly cloudy 10 - - - -
20/12:29pm 22.6 WSW 16 26 1013.3 - 0.0 - Partly cloudy 10 - - - -
20/12:00pm 19.7 NW 18 23 1013.3 - 0.0 - Partly cloudy 10 - - - -
20/11:30am 18.5 NW 20 25 1013.5 - 0.0 - Partly cloudy 10 - - - -
20/11:00am 18.6 NW 20 25 1013.5 - 0.0 - Partly cloudy 10 - - - -
20/10:30am 18.1 NW 20 25 1013.6 - 0.0 - Partly cloudy 10 - - - -
20/10:00am 17.5 NW 19 23 1013.8 - 0.0 - - 10 - - - -
20/09:30am 17.1 NW 17 21 1014.0 - 0.0 - - 10 - - - -
20/09:00am 16.2 WNW 17 21 1014.1 - 0.0 - - 10 - - - -
20/08:30am 16.1 WNW 16 19 1014.2 - 0.0 - Partly cloudy 10 - - - -
20/08:00am 15.6 WNW 16 19 1013.9 - 0.0 - Partly cloudy 10 - - - -
20/07:30am 15.2 WNW 15 19 1013.8 - 0.0 - Partly cloudy 10 - - - -
20/07:00am 14.7 WNW 16 20 1013.7 - 0.0 - Partly cloudy 10 - - - -
20/06:30am 14.2 WNW 15 18 1013.6 - 0.0 - Partly cloudy 10 - - - -

Other Formats:

Comma delimited format used in spreadsheet applications
http://www.bom.gov.au/fwo/IDV60701/IDV60701.95960.axf

JavaScript Object Notation format (JSON) in row-major order
http://www.bom.gov.au/fwo/IDV60701/IDV60701.95960.json